Home > Products > Valid Products > TAF

000
FTUS42 KMHX 132321
TAFEWN
TAF
KEWN 132321Z 1400/1424 32008KT P6SM SKC=



000
FTUS42 KMHX 131720
TAFEWN
TAF
KEWN 131720Z 1318/1418 32013G23KT P6SM SKC
     FM132300 35007KT P6SM SKC=



000
FTUS42 KMHX 131139
TAFEWN
TAF
KEWN 131139Z 1312/1412 32009KT P6SM SKC
     FM131400 32013G23KT P6SM SKC
     FM132300 34007KT P6SM SKC=



000
FTUS42 KMHX 131139
TAFEWN
TAF
KEWN 131139Z 1312/1412 32009KT P6SM SKC
     FM131400 32013G23KT P6SM SKC
     FM132300 34007KT P6SM SKC=



000
FTUS42 KMHX 130559 CCA
TAFEWN
TAF COR
KEWN 130559Z 1306/1406 30007KT P6SM SCT006 BKN070
     FM130900 32011KT P6SM SKC
     FM131400 32013G22KT P6SM SKC
     FM132300 33007KT P6SM SKC=



000
FTUS42 KMHX 130559 CCA
TAFEWN
TAF COR
KEWN 130559Z 1306/1406 30007KT P6SM SCT006 BKN070
     FM130900 32011KT P6SM SKC
     FM131400 32013G22KT P6SM SKC
     FM132300 33007KT P6SM SKC=



000
FTUS42 KMHX 130538
TAFEWN
TAF
KEWN 130538Z 1306/1406 30007KT P6SM SCT006 BKN070
      TEMPO 1306/1307 BKN006
     FM130900 32011KT P6SM SKC
     FM131400 32013G22KT P6SM SKC
     FM132300 33007KT P6SM SKC=



000
FTUS42 KMHX 130312 AAB
TAFEWN
TAF AMD
KEWN 130312Z 1303/1324 30007KT P6SM OVC006
     FM130700 30005KT P6SM SCT010
     FM131300 32012G21KT P6SM SKC=



000
FTUS42 KMHX 130050 AAA
TAFEWN
TAF AMD
KEWN 130050Z 1301/1324 32004KT P6SM OVC004
     FM130700 30005KT P6SM SCT010
     FM131300 32012G21KT P6SM SKC=



000
FTUS42 KMHX 130050 AAA
TAFEWN
TAF AMD
KEWN 130050Z 1301/1324 32004KT P6SM OVC004
     FM130700 30005KT P6SM SCT010
     FM131300 32012G21KT P6SM SKC=



000
FTUS42 KMHX 122321
TAFEWN
TAF
KEWN 122321Z 1300/1324 35006KT P6SM OVC006
     FM130700 30005KT P6SM SCT010
     FM131300 32012G21KT P6SM SKC=



000
FTUS42 KMHX 122211 AAB
TAFEWN
TAF AMD
KEWN 122211Z 1222/1318 34007KT P6SM OVC007
     FM130000 VRB04KT 4SM BR OVC020
     FM130800 30005KT P6SM SCT010
     FM131300 32012G21KT P6SM SKC=



000
FTUS42 KMHX 122211 AAB
TAFEWN
TAF AMD
KEWN 122211Z 1222/1318 34007KT P6SM OVC007
     FM130000 VRB04KT 4SM BR OVC020
     FM130800 30005KT P6SM SCT010
     FM131300 32012G21KT P6SM SKC=



000
FTUS42 KMHX 121808 AAA
TAFEWN
TAF AMD
KEWN 121808Z 1218/1318 07005KT 3SM -RA BR BKN030
      TEMPO 1218/1219 2SM -FZRA BR OVC010
     FM122100 02005KT 3SM -FZRA BR OVC007
     FM130000 VRB04KT 4SM BR OVC020
     FM130800 30005KT P6SM SCT010
     FM131300 32012G21KT P6SM SKC=



000
FTUS42 KMHX 121722
TAFEWN
TAF
KEWN 121722Z 1218/1318 07005KT 3SM -RA BR BKN030
     FM122100 02005KT 3SM -FZRA BR OVC007
     FM130000 VRB04KT 4SM BR OVC020
     FM130800 30005KT P6SM SCT010
     FM131300 32012G21KT P6SM SKC=



000
FTUS42 KMHX 121127
TAFEWN
TAF
KEWN 121127Z 1212/1312 03006KT P6SM BKN070
     FM121600 05010KT 4SM -SNPL OVC020
     FM121800 07005KT 2SM -FZRAPL BR OVC007
     FM122100 02005KT 3SM BR OVC005
     FM130500 30005KT P6SM SCT010=



000
FTUS42 KMHX 121127
TAFEWN
TAF
KEWN 121127Z 1212/1312 03006KT P6SM BKN070
     FM121600 05010KT 4SM -SNPL OVC020
     FM121800 07005KT 2SM -FZRAPL BR OVC007
     FM122100 02005KT 3SM BR OVC005
     FM130500 30005KT P6SM SCT010=



000
FTUS42 KMHX 120556
TAFEWN
TAF
KEWN 120556Z 1206/1306 00000KT P6SM SCT100
     FM121500 05010KT 4SM -SNPL OVC020
     FM121700 07005KT 2SM -FZRAPL OVC007
     FM122100 02005KT 4SM -RAPL OVC005
     FM130300 30005KT P6SM SCT010=



000
FTUS42 KMHX 120556
TAFEWN
TAF
KEWN 120556Z 1206/1306 00000KT P6SM SCT100
     FM121500 05010KT 4SM -SNPL OVC020
     FM121700 07005KT 2SM -FZRAPL OVC007
     FM122100 02005KT 4SM -RAPL OVC005
     FM130300 30005KT P6SM SCT010=



000
FTUS42 KMHX 112335
TAFEWN
TAF
KEWN 112335Z 1200/1224 VRB03KT P6SM SKC
     FM121100 04005KT P6SM BKN100
     FM121400 05010KT 4SM -SN OVC020
     FM121700 07005KT 2SM -SN OVC010
     FM122100 02005KT 4SM -SNPL OVC005=



000
FTUS42 KMHX 112335
TAFEWN
TAF
KEWN 112335Z 1200/1224 VRB03KT P6SM SKC
     FM121100 04005KT P6SM BKN100
     FM121400 05010KT 4SM -SN OVC020
     FM121700 07005KT 2SM -SN OVC010
     FM122100 02005KT 4SM -SNPL OVC005=



000
FTUS42 KMHX 111720
TAFEWN
TAF
KEWN 111720Z 1118/1218 29011G18KT P6SM SKC
     FM112200 VRB03KT P6SM SKC
     FM121100 04004KT P6SM BKN100
     FM121400 05007KT 6SM -SN OVC020=



000
FTUS42 KMHX 111720
TAFEWN
TAF
KEWN 111720Z 1118/1218 29011G18KT P6SM SKC
     FM112200 VRB03KT P6SM SKC
     FM121100 04004KT P6SM BKN100
     FM121400 05007KT 6SM -SN OVC020=



000
FTUS42 KMHX 111120
TAFEWN
TAF
KEWN 111120Z 1112/1212 29008KT P6SM SKC
     FM111500 29011G18KT P6SM SKC
     FM112200 29004KT P6SM SKC
     FM121100 04004KT P6SM BKN100=



000
FTUS42 KMHX 110531
TAFEWN
TAF
KEWN 110531Z 1106/1206 29006KT P6SM SKC
     FM111500 29011G18KT P6SM SKC
     FM112200 29004KT P6SM SKC=



000
FTUS42 KMHX 110531
TAFEWN
TAF
KEWN 110531Z 1106/1206 29006KT P6SM SKC
     FM111500 29011G18KT P6SM SKC
     FM112200 29004KT P6SM SKC=



    US Dept of Commerce
    National Oceanic and Atmospheric Administration
    National Weather Service
    1325 East West Highway
    Silver Spring, MD 20910
    Page Author: NWS Internet Services Team
Disclaimer
Information Quality
Credits
Glossary
Privacy Policy
Freedom of Information Act (FOIA)
About Us
Career Opportunities